createdAt,value
2023-02-09T00:01:08.969Z,1.43
2023-02-09T00:03:36.345Z,1.37
2023-02-09T00:06:04.075Z,1.40
2023-02-09T00:08:31.164Z,1.37
2023-02-09T00:10:57.929Z,1.36
2023-02-09T00:13:25.034Z,1.35
2023-02-09T00:16:01.593Z,1.37
2023-02-09T00:18:30.282Z,1.36
2023-02-09T00:21:08.171Z,1.36
2023-02-09T00:23:37.861Z,1.24
2023-02-09T00:26:07.847Z,1.22
2023-02-09T00:28:34.563Z,1.22
2023-02-09T00:31:06.402Z,1.24
2023-02-09T00:33:32.888Z,1.23
2023-02-09T00:35:59.383Z,1.27
2023-02-09T00:38:25.897Z,1.23
2023-02-09T00:40:52.413Z,1.21
2023-02-09T00:43:18.918Z,1.18
2023-02-09T00:45:45.472Z,1.15
2023-02-09T00:48:12.066Z,1.16
2023-02-09T00:50:38.576Z,1.16
2023-02-09T00:53:05.104Z,1.20
2023-02-09T00:55:31.752Z,1.24
2023-02-09T00:57:58.359Z,1.23
2023-02-09T01:00:25.092Z,1.30
2023-02-09T01:02:51.679Z,1.32
2023-02-09T01:05:18.698Z,1.37
2023-02-09T01:07:45.240Z,1.42
2023-02-09T01:10:11.741Z,1.49
2023-02-09T01:12:40.823Z,1.51
2023-02-09T01:15:08.637Z,1.52
2023-02-09T01:17:35.909Z,1.58
2023-02-09T01:20:02.982Z,1.62
2023-02-09T01:22:29.970Z,1.62
2023-02-09T01:24:56.781Z,1.59
2023-02-09T01:27:23.693Z,1.54
2023-02-09T01:29:51.045Z,1.53
2023-02-09T01:32:17.742Z,1.49
2023-02-09T01:34:44.407Z,1.48
2023-02-09T01:37:11.050Z,1.47
2023-02-09T01:39:37.697Z,1.43
2023-02-09T01:42:04.853Z,1.41
2023-02-09T01:44:31.261Z,1.40
2023-02-09T01:46:57.761Z,1.41
2023-02-09T01:49:27.081Z,1.40
2023-02-09T01:52:26.517Z,1.44
2023-02-09T01:55:01.304Z,1.50
2023-02-09T01:57:33.251Z,1.42
2023-02-09T02:00:08.132Z,1.42
2023-02-09T02:02:35.275Z,1.35
2023-02-09T02:05:02.208Z,1.31
2023-02-09T02:07:38.415Z,1.30
2023-02-09T02:10:05.445Z,1.30
2023-02-09T02:12:32.664Z,1.26
2023-02-09T02:14:59.239Z,1.21
2023-02-09T02:17:25.643Z,1.20
2023-02-09T02:20:10.662Z,1.13
2023-02-09T02:22:55.704Z,1.12
2023-02-09T02:25:25.222Z,1.12
2023-02-09T02:28:19.620Z,1.09
2023-02-09T02:30:58.176Z,1.10
2023-02-09T02:33:45.041Z,1.10
2023-02-09T02:36:48.710Z,1.13
2023-02-09T02:39:24.158Z,1.10
2023-02-09T02:42:15.397Z,1.16
2023-02-09T02:44:43.979Z,1.14
2023-02-09T02:47:14.615Z,1.15
2023-02-09T02:50:04.024Z,1.17
2023-02-09T02:52:30.606Z,1.13
2023-02-09T02:55:08.824Z,1.13
2023-02-09T02:57:37.008Z,1.14
2023-02-09T03:00:10.907Z,1.15
2023-02-09T03:02:44.322Z,1.11
2023-02-09T03:05:11.400Z,1.05
2023-02-09T03:07:37.934Z,1.07
2023-02-09T03:10:26.323Z,1.07
2023-02-09T03:13:04.726Z,1.03
2023-02-09T03:15:37.211Z,1.01
2023-02-09T03:18:40.971Z,0.95
2023-02-09T03:21:29.337Z,0.91
2023-02-09T03:24:04.183Z,0.89
2023-02-09T03:26:41.781Z,0.84
2023-02-09T03:29:09.530Z,0.88
2023-02-09T03:31:36.825Z,0.88
2023-02-09T03:34:03.873Z,0.86
2023-02-09T03:36:35.124Z,0.85
2023-02-09T03:39:02.192Z,0.85
2023-02-09T03:41:28.723Z,0.88
2023-02-09T03:44:13.717Z,0.89
2023-02-09T03:46:40.421Z,0.82
2023-02-09T03:49:07.033Z,0.84
2023-02-09T03:51:33.530Z,0.79
2023-02-09T03:54:00.213Z,0.76
2023-02-09T03:56:26.790Z,0.76
2023-02-09T03:58:53.335Z,0.75
2023-02-09T04:01:19.872Z,0.74
2023-02-09T04:03:46.417Z,0.67
2023-02-09T04:06:12.974Z,0.66
2023-02-09T04:08:39.664Z,0.65
2023-02-09T04:11:06.292Z,0.63
2023-02-09T04:13:33.036Z,0.59
2023-02-09T04:15:59.653Z,0.58
2023-02-09T04:18:26.434Z,0.57
2023-02-09T04:20:52.946Z,0.61
2023-02-09T04:23:21.022Z,0.64
2023-02-09T04:25:47.699Z,0.61
2023-02-09T04:28:14.262Z,0.61
2023-02-09T04:30:42.661Z,0.55
2023-02-09T04:33:11.035Z,0.57
2023-02-09T04:35:37.866Z,0.59
2023-02-09T04:38:04.476Z,0.67
2023-02-09T04:40:31.009Z,0.61
2023-02-09T04:42:57.486Z,0.58
2023-02-09T04:45:24.034Z,0.56
2023-02-09T04:47:50.633Z,0.57
2023-02-09T04:50:17.486Z,0.52
2023-02-09T04:52:44.014Z,0.49
2023-02-09T04:55:10.533Z,0.46
2023-02-09T04:57:55.645Z,0.47
2023-02-09T05:00:22.359Z,0.41
2023-02-09T05:02:48.968Z,0.42
2023-02-09T05:05:15.555Z,0.39
2023-02-09T05:07:42.064Z,0.38
2023-02-09T05:10:08.976Z,0.35
2023-02-09T05:12:35.457Z,0.37
2023-02-09T05:15:01.987Z,0.37
2023-02-09T05:17:28.502Z,0.42
2023-02-09T05:19:55.096Z,0.45
2023-02-09T05:22:21.645Z,0.37
2023-02-09T05:24:48.115Z,0.32
2023-02-09T05:27:14.636Z,0.39
2023-02-09T05:29:41.106Z,0.34
2023-02-09T05:32:07.783Z,0.37
2023-02-09T05:34:34.377Z,0.32
2023-02-09T05:37:00.885Z,0.28
2023-02-09T05:39:27.969Z,0.30
2023-02-09T05:42:13.030Z,0.30
2023-02-09T05:44:39.710Z,0.29
2023-02-09T05:47:06.246Z,0.26
2023-02-09T05:49:33.896Z,0.23
2023-02-09T05:52:00.764Z,0.21
2023-02-09T05:54:27.412Z,0.21
2023-02-09T05:56:53.971Z,0.19
2023-02-09T05:59:20.613Z,0.23
2023-02-09T06:01:47.220Z,0.26
2023-02-09T06:04:13.683Z,0.22
2023-02-09T06:06:40.269Z,0.20
2023-02-09T06:09:06.914Z,0.18
2023-02-09T06:11:33.524Z,0.19
2023-02-09T06:14:00.060Z,0.21
2023-02-09T06:16:26.702Z,0.32
2023-02-09T06:18:53.327Z,0.35
2023-02-09T06:21:19.876Z,0.36
2023-02-09T06:23:46.409Z,0.43
2023-02-09T06:26:15.705Z,0.42
2023-02-09T06:28:42.482Z,0.35
2023-02-09T06:31:09.658Z,0.26
2023-02-09T06:33:37.769Z,0.27
2023-02-09T06:36:05.639Z,0.22
2023-02-09T06:38:33.500Z,0.17
2023-02-09T06:41:00.237Z,0.12
2023-02-09T06:43:27.504Z,0.14
2023-02-09T06:45:54.334Z,0.18
2023-02-09T06:48:20.956Z,0.14
2023-02-09T06:50:47.808Z,0.11
2023-02-09T06:53:14.943Z,0.14
2023-02-09T06:55:41.449Z,0.18
2023-02-09T06:58:07.938Z,0.21
2023-02-09T07:00:34.421Z,0.24
2023-02-09T07:03:01.027Z,0.23
2023-02-09T07:05:27.579Z,0.23
2023-02-09T07:07:56.206Z,0.18
2023-02-09T07:10:22.885Z,0.12
2023-02-09T07:12:49.463Z,0.04
2023-02-09T07:15:16.064Z,0.08
2023-02-09T07:17:42.623Z,0.07
2023-02-09T07:20:10.379Z,0.03
2023-02-09T07:22:36.907Z,0.03
2023-02-09T07:25:03.512Z,0.03
2023-02-09T07:27:30.019Z,0.05
2023-02-09T07:29:56.509Z,0.08
2023-02-09T07:32:24.020Z,0.06
2023-02-09T07:34:50.545Z,0.07
2023-02-09T07:37:17.317Z,0.04
2023-02-09T07:39:44.012Z,0.04
2023-02-09T07:42:10.676Z,0.04
2023-02-09T07:44:37.235Z,0.03
2023-02-09T07:47:03.984Z,0.11
2023-02-09T07:49:30.487Z,0.05
2023-02-09T07:51:57.111Z,0.07
2023-02-09T07:54:23.639Z,0.10
2023-02-09T07:56:50.342Z,0.16
2023-02-09T07:59:17.101Z,0.21
2023-02-09T08:01:43.874Z,0.22
2023-02-09T08:04:10.632Z,0.32
2023-02-09T08:06:43.472Z,0.47
2023-02-09T08:09:11.868Z,0.57
2023-02-09T08:11:49.045Z,0.52
2023-02-09T08:14:21.961Z,0.64
2023-02-09T08:16:50.015Z,0.68
2023-02-09T08:19:22.065Z,0.64
2023-02-09T08:21:49.828Z,0.57
2023-02-09T08:24:18.474Z,0.76
2023-02-09T08:26:45.282Z,0.83
2023-02-09T08:29:12.514Z,0.87
2023-02-09T08:31:40.528Z,0.90
2023-02-09T08:34:07.305Z,1.04
2023-02-09T08:36:34.469Z,1.05
2023-02-09T08:39:01.245Z,1.13
2023-02-09T08:41:27.846Z,0.99
2023-02-09T08:43:54.441Z,1.14
2023-02-09T08:46:21.345Z,1.09
2023-02-09T08:48:47.965Z,1.34
2023-02-09T08:51:15.945Z,1.52
2023-02-09T08:53:43.397Z,1.63
2023-02-09T08:56:10.440Z,1.64
2023-02-09T08:58:36.956Z,1.63
2023-02-09T09:01:05.405Z,1.82
2023-02-09T09:03:33.062Z,1.83
2023-02-09T09:06:04.676Z,2.02
2023-02-09T09:08:32.352Z,2.34
2023-02-09T09:10:59.265Z,2.66
2023-02-09T09:13:26.189Z,2.72
2023-02-09T09:15:55.124Z,2.98
2023-02-09T09:18:22.976Z,3.06
2023-02-09T09:20:49.561Z,3.01
2023-02-09T09:23:16.436Z,3.12
2023-02-09T09:25:43.391Z,2.97
2023-02-09T09:28:10.348Z,2.97
2023-02-09T09:30:37.142Z,3.08
2023-02-09T09:33:04.300Z,3.05
2023-02-09T09:35:31.521Z,3.19
2023-02-09T09:37:58.594Z,3.30
2023-02-09T09:40:28.925Z,3.12
2023-02-09T09:42:57.461Z,3.03
2023-02-09T09:45:25.812Z,3.04
2023-02-09T09:47:52.805Z,3.10
2023-02-09T09:50:26.422Z,2.95
2023-02-09T09:53:01.213Z,2.67
2023-02-09T09:55:30.101Z,2.80
2023-02-09T09:58:00.236Z,2.94
2023-02-09T10:00:30.237Z,3.26
2023-02-09T10:02:56.848Z,3.21
2023-02-09T10:05:29.063Z,2.80
2023-02-09T10:08:03.461Z,2.80
2023-02-09T10:10:33.100Z,2.81
2023-02-09T10:13:00.060Z,2.73
2023-02-09T10:15:32.816Z,3.01
2023-02-09T10:18:00.174Z,2.99
2023-02-09T10:20:51.344Z,3.32
2023-02-09T10:23:17.826Z,3.24
2023-02-09T10:26:06.276Z,3.37
2023-02-09T10:28:35.957Z,3.39
2023-02-09T10:31:03.609Z,3.62
2023-02-09T10:33:41.149Z,3.70
2023-02-09T10:36:21.542Z,3.68
2023-02-09T10:38:48.094Z,3.59
2023-02-09T10:41:14.870Z,3.30
2023-02-09T10:43:41.692Z,3.31
2023-02-09T10:46:15.439Z,3.50
2023-02-09T10:48:45.757Z,3.53
2023-02-09T10:51:29.321Z,3.70
2023-02-09T10:53:55.775Z,4.47
2023-02-09T10:56:25.584Z,4.74
2023-02-09T10:59:04.218Z,4.84
2023-02-09T11:01:41.995Z,4.97
2023-02-09T11:04:19.494Z,5.19
2023-02-09T11:06:52.074Z,5.09
2023-02-09T11:09:22.240Z,4.84
2023-02-09T11:11:48.755Z,4.58
2023-02-09T11:14:18.135Z,4.32
2023-02-09T11:16:55.724Z,4.30
2023-02-09T11:19:31.017Z,4.08
2023-02-09T11:22:12.369Z,4.05
2023-02-09T11:24:46.876Z,4.22
2023-02-09T11:27:41.097Z,4.57
2023-02-09T11:30:25.748Z,4.71
2023-02-09T11:33:29.049Z,4.89
2023-02-09T11:36:27.827Z,4.96
2023-02-09T11:38:58.257Z,5.01
2023-02-09T11:41:48.303Z,4.97
2023-02-09T11:44:26.568Z,4.87
2023-02-09T11:46:59.860Z,4.53
2023-02-09T11:49:30.534Z,4.82
2023-02-09T11:51:58.735Z,5.11
2023-02-09T11:54:28.799Z,5.28
2023-02-09T11:57:02.010Z,5.23
2023-02-09T11:59:40.666Z,4.83
2023-02-09T12:02:37.483Z,4.58
2023-02-09T12:05:04.657Z,4.77
2023-02-09T12:07:41.650Z,4.73
2023-02-09T12:10:24.174Z,4.67
2023-02-09T12:13:08.825Z,4.90
2023-02-09T12:15:45.005Z,5.11
2023-02-09T12:18:19.149Z,5.16
2023-02-09T12:20:55.785Z,5.18
2023-02-09T12:23:40.417Z,5.21
2023-02-09T12:26:12.936Z,4.90
2023-02-09T12:28:46.169Z,4.69
2023-02-09T12:31:25.387Z,4.46
2023-02-09T12:33:58.114Z,4.61
2023-02-09T12:36:27.379Z,4.62
2023-02-09T12:39:03.926Z,4.64
2023-02-09T12:41:33.491Z,4.43
2023-02-09T12:44:09.306Z,4.38
2023-02-09T12:46:45.060Z,4.47
2023-02-09T12:49:11.733Z,4.56
2023-02-09T12:51:50.911Z,4.61
2023-02-09T12:54:51.673Z,4.78
2023-02-09T12:57:18.892Z,4.74
2023-02-09T12:59:52.564Z,4.88
2023-02-09T13:02:44.787Z,4.93
2023-02-09T13:05:13.585Z,4.95
2023-02-09T13:07:59.583Z,4.80
2023-02-09T13:10:44.803Z,4.81
2023-02-09T13:13:11.305Z,4.93
2023-02-09T13:16:06.050Z,4.83
2023-02-09T13:18:54.803Z,4.91
2023-02-09T13:21:49.304Z,4.83
2023-02-09T13:24:25.037Z,4.81
2023-02-09T13:26:56.981Z,4.81
2023-02-09T13:29:28.180Z,4.80
2023-02-09T13:32:00.830Z,4.82
2023-02-09T13:34:44.418Z,4.87
2023-02-09T13:37:13.968Z,4.80
2023-02-09T13:39:41.984Z,4.94
2023-02-09T13:42:29.734Z,5.00
2023-02-09T13:44:58.681Z,4.94
2023-02-09T13:47:26.330Z,4.87
2023-02-09T13:50:13.910Z,4.90
2023-02-09T13:52:40.683Z,4.85
2023-02-09T13:55:22.462Z,4.92
2023-02-09T13:58:03.377Z,4.99
2023-02-09T14:00:42.632Z,5.11
2023-02-09T14:03:57.985Z,4.88
2023-02-09T14:06:36.270Z,4.91
2023-02-09T14:09:06.157Z,4.86
2023-02-09T14:11:42.708Z,4.82
2023-02-09T14:14:21.425Z,4.83
2023-02-09T14:16:53.869Z,4.93
2023-02-09T14:19:31.049Z,4.89
2023-02-09T14:21:57.976Z,4.90
2023-02-09T14:24:43.870Z,4.91
2023-02-09T14:27:28.376Z,4.98
2023-02-09T14:29:55.645Z,5.05
2023-02-09T14:32:32.341Z,5.14
2023-02-09T14:35:00.624Z,5.24
2023-02-09T14:37:29.329Z,5.35
2023-02-09T14:40:08.143Z,5.38
2023-02-09T14:42:39.353Z,5.30
2023-02-09T14:45:15.163Z,5.32
2023-02-09T14:47:43.880Z,5.33
2023-02-09T14:50:15.646Z,5.33
2023-02-09T14:52:46.738Z,5.31
2023-02-09T14:55:19.566Z,5.34
2023-02-09T14:57:47.100Z,5.36
2023-02-09T15:00:30.805Z,5.36
2023-02-09T15:02:59.249Z,5.32
2023-02-09T15:05:27.048Z,5.44
2023-02-09T15:07:56.511Z,5.45
2023-02-09T15:10:29.733Z,5.56
2023-02-09T15:12:57.057Z,5.50
2023-02-09T15:15:24.633Z,5.51
2023-02-09T15:17:54.160Z,5.51
2023-02-09T15:20:25.738Z,5.58
2023-02-09T15:22:53.866Z,5.62
2023-02-09T15:25:20.832Z,5.73
2023-02-09T15:27:52.141Z,5.63
2023-02-09T15:30:25.246Z,5.64
2023-02-09T15:32:52.590Z,5.62
2023-02-09T15:35:22.357Z,5.59
2023-02-09T15:37:52.967Z,5.59
2023-02-09T15:40:43.525Z,5.58
2023-02-09T15:43:39.371Z,5.67
2023-02-09T15:46:09.536Z,5.74
2023-02-09T15:48:36.967Z,5.77
2023-02-09T15:51:03.797Z,5.74
2023-02-09T15:53:32.020Z,5.74
2023-02-09T15:55:59.527Z,5.79
2023-02-09T15:58:35.338Z,5.82
2023-02-09T16:01:02.805Z,5.82
2023-02-09T16:03:31.663Z,5.79
2023-02-09T16:06:04.122Z,5.83
2023-02-09T16:08:36.921Z,5.89
2023-02-09T16:11:09.365Z,5.90
2023-02-09T16:13:36.850Z,5.82
2023-02-09T16:16:16.351Z,5.83
2023-02-09T16:18:44.084Z,5.78
2023-02-09T16:21:18.665Z,5.74
2023-02-09T16:23:46.437Z,5.79
2023-02-09T16:26:13.063Z,5.78
2023-02-09T16:28:39.612Z,5.72
2023-02-09T16:31:07.204Z,5.66
2023-02-09T16:33:36.505Z,5.59
2023-02-09T16:36:03.274Z,5.52
2023-02-09T16:38:30.024Z,5.42
2023-02-09T16:40:56.621Z,5.39
2023-02-09T16:43:23.785Z,5.37
2023-02-09T16:46:02.907Z,5.34
2023-02-09T16:48:31.826Z,5.31
2023-02-09T16:50:58.513Z,5.33
2023-02-09T16:53:40.690Z,5.29
2023-02-09T16:56:10.285Z,5.29
2023-02-09T16:58:37.698Z,5.26
2023-02-09T17:01:13.042Z,5.16
2023-02-09T17:03:40.806Z,5.07
2023-02-09T17:06:15.708Z,4.96
2023-02-09T17:08:42.480Z,4.87
2023-02-09T17:11:17.017Z,4.77
2023-02-09T17:13:44.249Z,4.65
2023-02-09T17:16:16.198Z,4.58
2023-02-09T17:18:43.731Z,4.55
2023-02-09T17:21:37.038Z,4.50
2023-02-09T17:24:05.195Z,4.44
2023-02-09T17:26:31.704Z,4.40
2023-02-09T17:28:58.283Z,4.37
2023-02-09T17:31:36.081Z,4.32
2023-02-09T17:34:08.601Z,4.28
2023-02-09T17:36:35.694Z,4.24
2023-02-09T17:39:02.491Z,4.22
2023-02-09T17:41:37.230Z,4.17
2023-02-09T17:44:24.073Z,4.12
2023-02-09T17:46:53.894Z,4.08
2023-02-09T17:49:20.432Z,4.06
2023-02-09T17:51:47.614Z,4.03
2023-02-09T17:54:19.273Z,4.00
2023-02-09T17:56:46.518Z,4.01
2023-02-09T17:59:14.812Z,3.98
2023-02-09T18:01:46.640Z,3.98
2023-02-09T18:04:19.487Z,3.94
2023-02-09T18:06:46.441Z,3.87
2023-02-09T18:09:13.661Z,3.80
2023-02-09T18:12:02.192Z,3.74
2023-02-09T18:14:31.201Z,3.63
2023-02-09T18:16:58.077Z,3.59
2023-02-09T18:19:24.894Z,3.51
2023-02-09T18:21:52.489Z,3.47
2023-02-09T18:24:21.738Z,3.46
2023-02-09T18:26:49.955Z,3.44
2023-02-09T18:29:17.442Z,3.40
2023-02-09T18:31:44.064Z,3.37
2023-02-09T18:34:10.963Z,3.34
2023-02-09T18:36:37.498Z,3.29
2023-02-09T18:39:04.175Z,3.26
2023-02-09T18:41:31.042Z,3.21
2023-02-09T18:43:57.627Z,3.16
2023-02-09T18:46:25.420Z,3.08
2023-02-09T18:48:51.985Z,3.01
2023-02-09T18:51:18.688Z,2.96
2023-02-09T18:53:45.567Z,2.92
2023-02-09T18:56:22.282Z,2.93
2023-02-09T18:58:52.879Z,2.87
2023-02-09T19:01:21.114Z,2.80
2023-02-09T19:03:52.149Z,2.75
2023-02-09T19:06:20.494Z,2.71
2023-02-09T19:08:48.172Z,2.70
2023-02-09T19:11:16.327Z,2.71
2023-02-09T19:13:43.183Z,2.68
2023-02-09T19:16:13.449Z,2.73
2023-02-09T19:18:42.990Z,2.92
2023-02-09T19:21:09.513Z,2.94
2023-02-09T19:23:36.016Z,3.00
2023-02-09T19:26:04.058Z,3.06
2023-02-09T19:28:31.024Z,3.06
2023-02-09T19:30:57.649Z,3.07
2023-02-09T19:33:24.211Z,3.04
2023-02-09T19:35:58.440Z,2.99
2023-02-09T19:38:25.970Z,2.97
2023-02-09T19:41:08.632Z,2.91
2023-02-09T19:43:36.579Z,2.84
2023-02-09T19:46:04.498Z,2.81
2023-02-09T19:48:31.375Z,2.75
2023-02-09T19:50:58.686Z,2.72
2023-02-09T19:53:26.754Z,2.67
2023-02-09T19:55:53.890Z,2.66
2023-02-09T19:58:23.537Z,2.62
2023-02-09T20:00:51.377Z,2.56
2023-02-09T20:03:18.270Z,2.59
2023-02-09T20:05:45.655Z,2.63
2023-02-09T20:08:14.599Z,2.66
2023-02-09T20:10:41.126Z,2.64
2023-02-09T20:13:09.114Z,2.64
2023-02-09T20:15:36.160Z,2.65
2023-02-09T20:18:02.848Z,2.69
2023-02-09T20:20:29.428Z,2.70
2023-02-09T20:22:56.028Z,2.67
2023-02-09T20:25:22.667Z,2.64
2023-02-09T20:27:52.540Z,2.60
2023-02-09T20:30:19.370Z,2.56
2023-02-09T20:32:45.942Z,2.52
2023-02-09T20:35:12.570Z,2.42
2023-02-09T20:37:39.450Z,2.42
2023-02-09T20:40:11.051Z,2.43
2023-02-09T20:42:56.684Z,2.41
2023-02-09T20:45:42.366Z,2.39
2023-02-09T20:48:08.953Z,2.34
2023-02-09T20:50:35.642Z,2.30
2023-02-09T20:53:02.422Z,2.29
2023-02-09T20:55:29.806Z,2.26
2023-02-09T20:57:56.376Z,2.29
2023-02-09T21:00:23.034Z,2.26
2023-02-09T21:02:49.599Z,2.21
2023-02-09T21:05:16.813Z,2.13
2023-02-09T21:07:43.692Z,2.09
2023-02-09T21:10:12.885Z,2.05
2023-02-09T21:12:39.795Z,2.04
2023-02-09T21:15:06.895Z,2.03
2023-02-09T21:17:33.618Z,1.95
2023-02-09T21:20:00.174Z,1.92
2023-02-09T21:22:26.726Z,1.88
2023-02-09T21:24:53.256Z,1.82
2023-02-09T21:27:20.454Z,1.81
2023-02-09T21:29:47.030Z,1.78
2023-02-09T21:32:13.707Z,1.82
2023-02-09T21:34:40.266Z,1.84
2023-02-09T21:37:10.175Z,1.87
2023-02-09T21:39:37.011Z,1.90
2023-02-09T21:42:22.463Z,1.89
2023-02-09T21:44:49.060Z,1.89
2023-02-09T21:47:15.665Z,1.84
2023-02-09T21:49:42.205Z,1.81
2023-02-09T21:52:08.768Z,1.77
2023-02-09T21:54:35.320Z,1.65
2023-02-09T21:57:02.418Z,1.65
2023-02-09T21:59:29.396Z,1.67
2023-02-09T22:01:56.036Z,1.65
2023-02-09T22:04:22.640Z,1.63
2023-02-09T22:06:49.361Z,1.56
2023-02-09T22:09:15.924Z,1.50
2023-02-09T22:11:42.457Z,1.42
2023-02-09T22:14:09.325Z,1.40
2023-02-09T22:16:35.923Z,1.35
2023-02-09T22:19:02.754Z,1.31
2023-02-09T22:21:29.378Z,1.25
2023-02-09T22:23:55.878Z,1.18
2023-02-09T22:26:22.418Z,1.15
2023-02-09T22:28:48.993Z,1.13
2023-02-09T22:31:17.722Z,1.15
2023-02-09T22:33:44.467Z,1.16
2023-02-09T22:36:16.258Z,1.19
2023-02-09T22:38:44.587Z,1.19
2023-02-09T22:41:23.326Z,1.21
2023-02-09T22:43:53.753Z,1.25
2023-02-09T22:46:22.152Z,1.25
2023-02-09T22:48:57.013Z,1.29
2023-02-09T22:51:25.684Z,1.31
2023-02-09T22:53:52.226Z,1.31
2023-02-09T22:56:18.769Z,1.35
2023-02-09T22:58:45.284Z,1.33
2023-02-09T23:01:12.451Z,1.31
2023-02-09T23:03:40.377Z,1.33
2023-02-09T23:06:09.087Z,1.31
2023-02-09T23:08:36.089Z,1.35
2023-02-09T23:11:09.190Z,1.38
2023-02-09T23:13:36.789Z,1.37
2023-02-09T23:16:17.429Z,1.27
2023-02-09T23:18:50.284Z,1.17
2023-02-09T23:21:17.754Z,1.10
2023-02-09T23:23:44.776Z,0.98
2023-02-09T23:26:12.816Z,0.84
2023-02-09T23:28:39.356Z,0.71
2023-02-09T23:31:07.354Z,0.65
2023-02-09T23:33:35.387Z,0.61
2023-02-09T23:36:10.749Z,0.59
2023-02-09T23:38:37.538Z,0.67
2023-02-09T23:41:12.265Z,0.66
2023-02-09T23:43:39.213Z,0.64
2023-02-09T23:46:08.420Z,0.57
2023-02-09T23:48:35.037Z,0.56
2023-02-09T23:51:04.666Z,0.60
2023-02-09T23:53:31.732Z,0.64
2023-02-09T23:56:03.713Z,0.63
2023-02-09T23:58:31.837Z,0.64
